TimeCST,TemperatureF,Dew PointF,Humidity,Sea Level PressureIn,VisibilityMPH,Wind Direction,Wind SpeedMPH,Gust SpeedMPH,PrecipitationIn,Events,Conditions,WindDirDegrees,DateUTC
12:53 AM,42.1,39.0,89,30.28,10.0,Calm,Calm,-,N/A,,Clear,0,2012-11-19 06:53:00
1:53 AM,42.1,39.9,92,30.28,10.0,Calm,Calm,-,N/A,,Clear,0,2012-11-19 07:53:00
2:53 AM,41.0,39.0,93,30.26,10.0,Calm,Calm,-,N/A,,Clear,0,2012-11-19 08:53:00
3:53 AM,43.0,39.9,89,30.25,10.0,Calm,Calm,-,N/A,,Clear,0,2012-11-19 09:53:00
4:53 AM,41.0,39.0,93,30.27,10.0,Calm,Calm,-,N/A,,Clear,0,2012-11-19 10:53:00
5:53 AM,42.1,39.0,89,30.27,10.0,Calm,Calm,-,N/A,,Clear,0,2012-11-19 11:53:00
6:53 AM,41.0,39.0,93,30.28,10.0,Calm,Calm,-,N/A,,Clear,0,2012-11-19 12:53:00
7:53 AM,48.9,45.0,86,30.29,10.0,Calm,Calm,-,N/A,,Clear,0,2012-11-19 13:53:00
8:53 AM,55.0,45.0,69,30.30,10.0,Calm,Calm,-,N/A,,Clear,0,2012-11-19 14:53:00
9:53 AM,60.1,44.1,55,30.31,10.0,Calm,Calm,-,N/A,,Clear,0,2012-11-19 15:53:00
10:53 AM,64.9,45.0,48,30.30,10.0,NW,4.6,-,N/A,,Clear,320,2012-11-19 16:53:00
11:53 AM,66.0,46.0,48,30.26,10.0,Calm,Calm,-,N/A,,Clear,0,2012-11-19 17:53:00
12:53 PM,68.0,45.0,43,30.23,10.0,Variable,5.8,-,N/A,,Clear,0,2012-11-19 18:53:00
1:53 PM,69.1,44.1,40,30.21,10.0,NNW,8.1,-,N/A,,Clear,340,2012-11-19 19:53:00
2:53 PM,70.0,41.0,35,30.19,10.0,North,4.6,-,N/A,,Clear,10,2012-11-19 20:53:00
3:53 PM,70.0,43.0,38,30.18,10.0,NNE,3.5,-,N/A,,Clear,20,2012-11-19 21:53:00
4:53 PM,61.0,48.9,64,30.18,10.0,Calm,Calm,-,N/A,,Clear,0,2012-11-19 22:53:00
5:53 PM,55.9,46.9,72,30.19,10.0,Calm,Calm,-,N/A,,Clear,0,2012-11-19 23:53:00
6:53 PM,53.1,46.0,77,30.20,10.0,Calm,Calm,-,N/A,,Clear,0,2012-11-20 00:53:00
7:53 PM,48.9,45.0,86,30.21,10.0,NW,3.5,-,N/A,,Clear,320,2012-11-20 01:53:00
9:53 PM,51.1,46.9,86,30.21,10.0,Calm,Calm,-,N/A,,Clear,0,2012-11-20 03:53:00
10:53 PM,51.1,46.9,86,30.20,10.0,Calm,Calm,-,N/A,,Clear,0,2012-11-20 04:53:00
11:53 PM,52.0,48.0,86,30.19,10.0,Calm,Calm,-,N/A,,Clear,0,2012-11-20 05:53:00